createdAt,value
2023-03-26T00:01:02.071Z,0.90
2023-03-26T00:03:30.048Z,0.90
2023-03-26T00:06:04.162Z,0.90
2023-03-26T00:08:31.016Z,0.80
2023-03-26T00:10:58.390Z,0.90
2023-03-26T00:13:26.758Z,0.90
2023-03-26T00:15:53.879Z,0.90
2023-03-26T00:18:22.395Z,0.80
2023-03-26T00:20:48.946Z,0.90
2023-03-26T00:23:15.609Z,0.80
2023-03-26T00:25:43.403Z,0.80
2023-03-26T00:28:10.636Z,0.90
2023-03-26T00:30:37.451Z,0.80
2023-03-26T00:33:04.260Z,0.90
2023-03-26T00:35:30.865Z,0.80
2023-03-26T00:37:58.435Z,0.80
2023-03-26T00:40:25.299Z,0.82
2023-03-26T00:42:51.899Z,0.80
2023-03-26T00:45:21.370Z,0.90
2023-03-26T00:47:48.346Z,0.90
2023-03-26T00:50:18.120Z,0.80
2023-03-26T00:52:46.295Z,0.90
2023-03-26T00:55:13.508Z,0.90
2023-03-26T00:57:40.691Z,0.80
2023-03-26T01:00:16.999Z,0.90
2023-03-26T01:02:45.279Z,0.85
2023-03-26T01:05:43.130Z,0.85
2023-03-26T01:08:43.288Z,0.85
2023-03-26T01:11:14.715Z,0.90
2023-03-26T01:13:50.735Z,0.90
2023-03-26T01:16:47.401Z,0.90
2023-03-26T01:19:21.180Z,0.80
2023-03-26T01:21:48.022Z,0.90
2023-03-26T01:24:14.646Z,0.90
2023-03-26T01:26:41.158Z,0.80
2023-03-26T01:29:19.513Z,0.80
2023-03-26T01:32:01.386Z,0.93
2023-03-26T01:34:49.901Z,0.80
2023-03-26T01:37:22.340Z,0.80
2023-03-26T01:39:57.258Z,0.90
2023-03-26T01:42:37.602Z,0.80
2023-03-26T01:45:16.661Z,0.80
2023-03-26T01:47:44.271Z,0.90
2023-03-26T01:50:11.158Z,0.80
2023-03-26T01:52:38.535Z,0.85
2023-03-26T01:55:06.656Z,0.90
2023-03-26T01:58:03.858Z,0.90
2023-03-26T02:00:39.458Z,0.90
2023-03-26T02:03:51.545Z,0.90
2023-03-26T02:06:30.809Z,0.90
2023-03-26T02:09:00.952Z,0.80
2023-03-26T02:11:35.441Z,0.80
2023-03-26T02:14:05.242Z,0.90
2023-03-26T02:16:31.936Z,0.80
2023-03-26T02:18:59.359Z,0.90
2023-03-26T02:21:27.977Z,0.80
2023-03-26T02:24:03.457Z,0.85
2023-03-26T02:26:32.470Z,0.90
2023-03-26T02:28:59.851Z,0.80
2023-03-26T02:31:26.714Z,0.90
2023-03-26T02:33:55.618Z,0.95
2023-03-26T02:36:27.497Z,0.90
2023-03-26T02:38:55.773Z,0.80
2023-03-26T02:41:22.522Z,0.85
2023-03-26T02:43:49.350Z,0.80
2023-03-26T02:46:16.146Z,0.70
2023-03-26T02:48:44.011Z,0.80
2023-03-26T02:51:10.855Z,0.80
2023-03-26T02:53:39.560Z,0.80
2023-03-26T02:56:06.813Z,0.90
2023-03-26T02:58:33.490Z,0.80
2023-03-26T03:01:03.297Z,0.80
2023-03-26T03:03:30.593Z,0.77
2023-03-26T03:05:57.887Z,0.88
2023-03-26T03:08:28.249Z,0.80
2023-03-26T03:11:16.596Z,0.80
2023-03-26T03:13:44.696Z,0.70
2023-03-26T03:16:11.369Z,0.70
2023-03-26T03:18:38.056Z,0.77
2023-03-26T03:21:06.199Z,0.80
2023-03-26T03:23:32.846Z,0.80
2023-03-26T03:25:59.521Z,0.70
2023-03-26T03:28:26.655Z,0.80
2023-03-26T03:30:53.398Z,0.70
2023-03-26T03:33:20.943Z,0.70
2023-03-26T03:35:49.691Z,0.80
2023-03-26T03:38:19.483Z,0.80
2023-03-26T03:40:46.437Z,0.73
2023-03-26T03:43:13.100Z,0.70
2023-03-26T03:45:39.737Z,0.70
2023-03-26T03:48:06.595Z,0.80
2023-03-26T03:50:35.611Z,0.70
2023-03-26T03:53:03.312Z,0.70
2023-03-26T03:55:30.063Z,0.70
2023-03-26T03:57:58.398Z,0.80
2023-03-26T04:00:25.149Z,0.70
2023-03-26T04:02:54.382Z,0.80
2023-03-26T04:05:21.673Z,0.80
2023-03-26T04:07:48.346Z,0.80
2023-03-26T04:10:16.095Z,0.80
2023-03-26T04:12:42.770Z,0.70
2023-03-26T04:15:09.741Z,0.80
2023-03-26T04:17:42.786Z,0.80
2023-03-26T04:20:15.972Z,0.80
2023-03-26T04:22:44.194Z,0.70
2023-03-26T04:25:12.622Z,0.80
2023-03-26T04:27:41.762Z,0.70
2023-03-26T04:30:12.628Z,0.70
2023-03-26T04:32:40.550Z,0.80
2023-03-26T04:35:07.511Z,0.80
2023-03-26T04:37:40.796Z,0.80
2023-03-26T04:40:15.560Z,0.80
2023-03-26T04:42:46.264Z,0.80
2023-03-26T04:45:22.486Z,0.73
2023-03-26T04:47:50.466Z,0.80
2023-03-26T04:50:17.370Z,0.70
2023-03-26T04:52:45.340Z,0.80
2023-03-26T04:55:24.943Z,0.80
2023-03-26T04:57:57.267Z,0.70
2023-03-26T05:00:24.835Z,0.70
2023-03-26T05:02:54.199Z,0.77
2023-03-26T05:05:20.901Z,0.80
2023-03-26T05:07:47.581Z,0.80
2023-03-26T05:10:16.055Z,0.80
2023-03-26T05:12:43.207Z,0.70
2023-03-26T05:15:11.651Z,0.80
2023-03-26T05:17:41.619Z,0.80
2023-03-26T05:20:21.639Z,0.90
2023-03-26T05:22:51.245Z,0.80
2023-03-26T05:25:18.623Z,0.90
2023-03-26T05:27:45.644Z,1.00
2023-03-26T05:30:17.900Z,0.90
2023-03-26T05:32:44.691Z,0.90
2023-03-26T05:35:12.612Z,0.93
2023-03-26T05:37:39.194Z,0.93
2023-03-26T05:40:13.875Z,0.90
2023-03-26T05:42:41.497Z,1.02
2023-03-26T05:45:11.221Z,1.00
2023-03-26T05:47:37.896Z,1.00
2023-03-26T05:50:06.199Z,1.10
2023-03-26T05:52:32.941Z,1.00
2023-03-26T05:54:59.496Z,1.00
2023-03-26T05:57:28.669Z,1.00
2023-03-26T05:59:56.304Z,0.93
2023-03-26T06:02:23.740Z,1.00
2023-03-26T06:04:51.063Z,1.10
2023-03-26T06:07:18.616Z,1.00
2023-03-26T06:09:45.739Z,0.90
2023-03-26T06:12:12.502Z,1.00
2023-03-26T06:14:39.356Z,1.10
2023-03-26T06:17:05.941Z,1.10
2023-03-26T06:19:32.546Z,1.13
2023-03-26T06:21:59.229Z,1.15
2023-03-26T06:24:26.091Z,1.30
2023-03-26T06:26:52.820Z,1.10
2023-03-26T06:29:20.202Z,1.05
2023-03-26T06:31:47.063Z,1.30
2023-03-26T06:34:13.728Z,1.10
2023-03-26T06:36:40.428Z,1.20
2023-03-26T06:39:07.682Z,1.20
2023-03-26T06:41:35.853Z,1.17
2023-03-26T06:44:02.664Z,1.30
2023-03-26T06:46:29.325Z,1.30
2023-03-26T06:48:56.169Z,1.20
2023-03-26T06:51:22.757Z,1.20
2023-03-26T06:53:49.314Z,1.35
2023-03-26T06:56:15.972Z,1.30
2023-03-26T06:58:42.558Z,1.35
2023-03-26T07:01:09.248Z,1.20
2023-03-26T07:03:35.930Z,1.30
2023-03-26T07:06:02.630Z,1.30
2023-03-26T07:08:30.880Z,1.40
2023-03-26T07:10:57.699Z,1.33
2023-03-26T07:13:24.643Z,1.30
2023-03-26T07:15:51.209Z,1.40
2023-03-26T07:18:17.780Z,1.40
2023-03-26T07:20:45.579Z,1.50
2023-03-26T07:23:13.821Z,1.40
2023-03-26T07:25:41.192Z,1.30
2023-03-26T07:28:25.742Z,1.33
2023-03-26T07:31:04.175Z,1.42
2023-03-26T07:34:09.788Z,1.30
2023-03-26T07:36:56.458Z,1.38
2023-03-26T07:39:44.529Z,1.60
2023-03-26T07:42:13.787Z,1.50
2023-03-26T07:44:49.372Z,1.60
2023-03-26T07:47:25.675Z,1.35
2023-03-26T07:49:54.571Z,1.50
2023-03-26T07:52:22.014Z,1.45
2023-03-26T07:54:48.824Z,1.52
2023-03-26T07:57:20.404Z,1.33
2023-03-26T07:59:58.438Z,1.50
2023-03-26T08:02:37.081Z,1.55
2023-03-26T08:05:32.989Z,1.60
2023-03-26T08:08:32.108Z,1.50
2023-03-26T08:11:40.377Z,1.48
2023-03-26T08:14:37.494Z,1.60
2023-03-26T08:17:14.701Z,1.50
2023-03-26T08:19:54.241Z,1.52
2023-03-26T08:22:27.399Z,1.60
2023-03-26T08:25:18.905Z,1.63
2023-03-26T08:28:02.085Z,1.58
2023-03-26T08:30:28.884Z,1.50
2023-03-26T08:33:02.359Z,1.40
2023-03-26T08:37:55.856Z,1.60
2023-03-26T08:40:40.511Z,1.60
2023-03-26T08:43:22.215Z,1.63
2023-03-26T08:45:57.765Z,1.85
2023-03-26T08:49:01.924Z,1.60
2023-03-26T08:51:43.819Z,1.63
2023-03-26T08:54:48.599Z,1.90
2023-03-26T08:57:26.457Z,1.58
2023-03-26T09:00:33.947Z,1.60
2023-03-26T09:03:25.524Z,1.45
2023-03-26T09:06:22.255Z,1.55
2023-03-26T09:09:27.386Z,1.60
2023-03-26T09:12:28.219Z,1.90
2023-03-26T09:15:03.722Z,1.60
2023-03-26T09:17:47.212Z,1.70
2023-03-26T09:20:38.577Z,1.65
2023-03-26T09:23:36.490Z,1.80
2023-03-26T09:26:18.468Z,1.75
2023-03-26T09:29:12.790Z,1.70
2023-03-26T09:31:42.296Z,1.67
2023-03-26T09:34:18.593Z,1.70
2023-03-26T09:36:57.302Z,1.70
2023-03-26T09:39:36.595Z,1.67
2023-03-26T09:42:23.625Z,1.85
2023-03-26T09:45:05.026Z,2.10
2023-03-26T09:47:31.844Z,1.60
2023-03-26T09:50:22.828Z,1.80
2023-03-26T09:53:04.416Z,1.70
2023-03-26T09:55:50.120Z,1.73
2023-03-26T09:58:42.263Z,1.60
2023-03-26T10:01:11.077Z,1.75
2023-03-26T10:03:43.813Z,1.80
2023-03-26T10:06:37.288Z,1.70
2023-03-26T10:09:38.458Z,1.58
2023-03-26T10:12:14.282Z,1.73
2023-03-26T10:15:11.204Z,1.67
2023-03-26T10:17:57.188Z,1.60
2023-03-26T10:20:37.666Z,1.83
2023-03-26T10:23:08.996Z,1.70
2023-03-26T10:25:40.951Z,1.80
2023-03-26T10:28:13.650Z,1.83
2023-03-26T10:31:07.824Z,1.90
2023-03-26T10:33:56.290Z,1.90
2023-03-26T10:36:41.333Z,1.70
2023-03-26T10:39:36.918Z,1.70
2023-03-26T10:42:28.739Z,1.55
2023-03-26T10:45:13.197Z,1.65
2023-03-26T10:47:39.772Z,1.80
2023-03-26T10:50:22.723Z,1.60
2023-03-26T10:53:03.666Z,1.70
2023-03-26T10:55:46.725Z,1.52
2023-03-26T10:58:27.743Z,1.60
2023-03-26T11:01:06.286Z,1.70
2023-03-26T11:03:43.951Z,1.55
2023-03-26T11:06:38.842Z,1.70
2023-03-26T11:09:30.361Z,1.60
2023-03-26T11:12:25.449Z,1.58
2023-03-26T11:15:13.589Z,1.70
2023-03-26T11:17:46.331Z,1.80
2023-03-26T11:20:43.558Z,1.67
2023-03-26T11:23:38.102Z,1.80
2023-03-26T11:26:18.034Z,1.60
2023-03-26T11:29:03.674Z,1.60
2023-03-26T11:32:02.980Z,1.90
2023-03-26T11:34:48.208Z,1.90
2023-03-26T11:37:29.780Z,1.90
2023-03-26T11:39:58.701Z,1.90
2023-03-26T11:42:25.788Z,1.77
2023-03-26T11:45:16.899Z,1.70
2023-03-26T11:47:55.687Z,1.85
2023-03-26T11:50:27.609Z,1.58
2023-03-26T11:53:03.249Z,1.60
2023-03-26T11:55:31.487Z,1.70
2023-03-26T11:58:00.759Z,1.95
2023-03-26T12:00:28.796Z,1.70
2023-03-26T12:03:00.466Z,1.70
2023-03-26T12:05:33.604Z,1.90
2023-03-26T12:08:03.691Z,2.00
2023-03-26T12:10:43.009Z,1.90
2023-03-26T12:13:33.631Z,1.98
2023-03-26T12:16:14.153Z,1.95
2023-03-26T12:18:43.946Z,2.13
2023-03-26T12:21:13.762Z,1.75
2023-03-26T12:23:44.953Z,2.22
2023-03-26T12:26:16.617Z,2.10
2023-03-26T12:28:49.325Z,1.80
2023-03-26T12:31:20.576Z,1.90
2023-03-26T12:34:17.229Z,2.00
2023-03-26T12:36:53.425Z,1.65
2023-03-26T12:40:10.095Z,1.95
2023-03-26T12:44:44.261Z,2.00
2023-03-26T12:45:16.194Z,2.22
2023-03-26T12:47:58.657Z,2.00
2023-03-26T12:50:39.903Z,2.20
2023-03-26T12:53:15.051Z,1.75
2023-03-26T12:56:40.347Z,1.98
2023-03-26T12:59:19.032Z,1.85
2023-03-26T13:02:14.857Z,1.92
2023-03-26T13:05:06.256Z,1.60
2023-03-26T13:07:57.490Z,2.13
2023-03-26T13:10:36.158Z,1.83
2023-03-26T13:13:26.345Z,1.80
2023-03-26T13:15:57.331Z,1.80
2023-03-26T13:19:02.135Z,1.90
2023-03-26T13:21:38.088Z,1.90
2023-03-26T13:24:07.718Z,1.85
2023-03-26T13:26:53.033Z,2.00
2023-03-26T13:29:44.279Z,2.20
2023-03-26T13:33:04.789Z,2.10
2023-03-26T13:35:46.936Z,2.10
2023-03-26T13:38:44.410Z,1.90
2023-03-26T13:42:01.349Z,1.85
2023-03-26T13:44:40.101Z,1.95
2023-03-26T13:47:09.970Z,1.70
2023-03-26T13:49:54.496Z,1.90
2023-03-26T13:52:27.386Z,2.10
2023-03-26T13:55:29.497Z,1.90
2023-03-26T13:58:16.541Z,2.30
2023-03-26T14:01:07.206Z,2.50
2023-03-26T14:03:46.462Z,2.53
2023-03-26T14:06:29.048Z,2.33
2023-03-26T14:09:06.625Z,2.45
2023-03-26T14:11:48.781Z,2.38
2023-03-26T14:14:23.958Z,2.45
2023-03-26T14:16:58.439Z,2.45
2023-03-26T14:19:40.366Z,2.60
2023-03-26T14:22:21.332Z,2.45
2023-03-26T14:24:58.944Z,2.53
2023-03-26T14:27:49.770Z,2.78
2023-03-26T14:30:32.110Z,2.85
2023-03-26T14:33:28.115Z,2.63
2023-03-26T14:36:08.356Z,2.08
2023-03-26T14:39:06.557Z,2.13
2023-03-26T14:41:53.378Z,2.00
2023-03-26T14:44:54.585Z,1.90
2023-03-26T14:47:22.508Z,1.90
2023-03-26T14:50:13.992Z,2.05
2023-03-26T14:53:01.191Z,1.90
2023-03-26T14:56:07.102Z,1.65
2023-03-26T14:58:51.527Z,1.90
2023-03-26T15:01:43.308Z,1.75
2023-03-26T15:04:48.522Z,1.75
2023-03-26T15:07:46.108Z,1.90
2023-03-26T15:10:36.961Z,1.85
2023-03-26T15:13:31.279Z,1.80
2023-03-26T15:16:22.382Z,1.95
2023-03-26T15:19:10.479Z,2.00
2023-03-26T15:21:40.578Z,1.90
2023-03-26T15:24:13.017Z,1.85
2023-03-26T15:27:16.702Z,1.80
2023-03-26T15:30:01.988Z,1.80
2023-03-26T15:32:58.233Z,1.90
2023-03-26T15:35:57.528Z,1.70
2023-03-26T15:39:14.829Z,1.75
2023-03-26T15:42:18.940Z,1.73
2023-03-26T15:44:54.394Z,2.10
2023-03-26T15:47:36.475Z,2.00
2023-03-26T15:50:31.198Z,1.67
2023-03-26T15:53:12.984Z,1.60
2023-03-26T15:56:19.254Z,1.67
2023-03-26T15:59:05.358Z,1.70
2023-03-26T16:02:02.888Z,1.80
2023-03-26T16:04:50.295Z,1.52
2023-03-26T16:07:43.994Z,1.65
2023-03-26T16:10:48.653Z,1.55
2023-03-26T16:13:40.944Z,1.50
2023-03-26T16:16:17.098Z,1.50
2023-03-26T16:18:46.585Z,1.60
2023-03-26T16:21:31.574Z,1.50
2023-03-26T16:24:08.477Z,1.65
2023-03-26T16:26:38.101Z,1.40
2023-03-26T16:29:14.337Z,1.55
2023-03-26T16:32:28.595Z,1.48
2023-03-26T16:35:15.134Z,1.58
2023-03-26T16:37:50.788Z,1.40
2023-03-26T16:40:17.502Z,1.48
2023-03-26T16:42:56.424Z,1.45
2023-03-26T16:45:38.291Z,1.40
2023-03-26T16:48:26.254Z,1.42
2023-03-26T16:51:10.310Z,1.48
2023-03-26T16:53:49.578Z,1.45
2023-03-26T16:56:54.898Z,1.20
2023-03-26T17:00:07.872Z,1.20
2023-03-26T17:02:53.468Z,1.17
2023-03-26T17:05:42.880Z,1.20
2023-03-26T17:08:36.058Z,1.13
2023-03-26T17:11:32.876Z,1.25
2023-03-26T17:14:17.648Z,1.05
2023-03-26T17:16:49.379Z,1.20
2023-03-26T17:19:25.323Z,1.20
2023-03-26T17:21:58.511Z,1.10
2023-03-26T17:24:31.214Z,1.30
2023-03-26T17:27:19.746Z,1.20
2023-03-26T17:30:03.624Z,1.10
2023-03-26T17:35:15.762Z,1.00
2023-03-26T17:37:45.725Z,1.08
2023-03-26T17:40:47.909Z,1.10
2023-03-26T17:43:37.510Z,1.10
2023-03-26T17:46:20.913Z,0.90
2023-03-26T17:48:55.024Z,1.00
2023-03-26T17:51:40.410Z,1.10
2023-03-26T17:54:14.814Z,1.10
2023-03-26T17:56:42.068Z,1.00
2023-03-26T17:59:23.203Z,1.00
2023-03-26T18:01:55.910Z,1.00
2023-03-26T18:04:45.099Z,1.00
2023-03-26T18:07:15.566Z,1.00
2023-03-26T18:09:58.922Z,1.00
2023-03-26T18:12:56.182Z,0.90
2023-03-26T18:15:30.621Z,0.90
2023-03-26T18:18:10.725Z,0.90
2023-03-26T18:20:38.553Z,0.90
2023-03-26T18:23:21.039Z,0.90
2023-03-26T18:25:56.983Z,0.88
2023-03-26T18:28:41.344Z,0.90
2023-03-26T18:31:28.042Z,0.90
2023-03-26T18:33:59.232Z,0.80
2023-03-26T18:36:28.865Z,0.90
2023-03-26T18:39:04.397Z,0.80
2023-03-26T18:41:41.808Z,0.82
2023-03-26T18:44:16.020Z,0.90
2023-03-26T18:46:43.770Z,0.90
2023-03-26T18:49:15.987Z,0.80
2023-03-26T18:51:56.094Z,0.90
2023-03-26T18:54:25.214Z,0.90
2023-03-26T18:56:52.853Z,0.90
2023-03-26T18:59:35.354Z,0.80
2023-03-26T19:02:11.130Z,0.90
2023-03-26T19:04:38.588Z,0.80
2023-03-26T19:07:13.879Z,0.90
2023-03-26T19:09:42.139Z,0.90
2023-03-26T19:12:23.029Z,0.80
2023-03-26T19:15:09.464Z,0.90
2023-03-26T19:17:48.840Z,0.73
2023-03-26T19:20:21.836Z,0.80
2023-03-26T19:22:49.481Z,0.80
2023-03-26T19:25:22.593Z,0.90
2023-03-26T19:27:50.811Z,0.80
2023-03-26T19:30:28.502Z,0.80
2023-03-26T19:32:56.666Z,0.80
2023-03-26T19:35:42.413Z,0.80
2023-03-26T19:38:24.523Z,0.80
2023-03-26T19:40:57.012Z,0.90
2023-03-26T19:43:25.744Z,0.90
2023-03-26T19:46:00.334Z,0.90
2023-03-26T19:48:46.905Z,0.80
2023-03-26T19:51:31.066Z,0.85
2023-03-26T19:54:00.865Z,0.80
2023-03-26T19:56:28.773Z,0.80
2023-03-26T19:58:59.518Z,0.90
2023-03-26T20:01:29.292Z,0.90
2023-03-26T20:04:00.039Z,0.82
2023-03-26T20:06:41.727Z,0.80
2023-03-26T20:09:11.102Z,0.80
2023-03-26T20:11:39.922Z,0.90
2023-03-26T20:14:15.780Z,0.80
2023-03-26T20:16:45.366Z,0.80
2023-03-26T20:19:14.199Z,0.80
2023-03-26T20:21:41.695Z,0.80
2023-03-26T20:24:16.982Z,0.80
2023-03-26T20:26:45.185Z,0.80
2023-03-26T20:29:13.006Z,0.80
2023-03-26T20:31:43.355Z,0.77
2023-03-26T20:34:22.628Z,0.85
2023-03-26T20:36:55.241Z,0.80
2023-03-26T20:39:23.593Z,0.80
2023-03-26T20:41:53.717Z,0.80
2023-03-26T20:44:22.472Z,0.85
2023-03-26T20:46:50.216Z,0.75
2023-03-26T20:49:18.109Z,0.80
2023-03-26T20:51:45.726Z,0.77
2023-03-26T20:54:21.611Z,0.70
2023-03-26T20:56:48.973Z,0.70
2023-03-26T20:59:22.356Z,0.70
2023-03-26T21:04:19.203Z,0.70
2023-03-26T21:06:45.889Z,0.70
2023-03-26T21:09:17.817Z,0.65
2023-03-26T21:12:05.491Z,0.70
2023-03-26T21:14:43.911Z,0.80
2023-03-26T21:17:19.941Z,0.70
2023-03-26T21:19:47.261Z,0.70
2023-03-26T21:22:35.795Z,0.70
2023-03-26T21:25:33.670Z,0.70
2023-03-26T21:28:26.180Z,0.60
2023-03-26T21:30:56.799Z,0.60
2023-03-26T21:33:23.571Z,0.70
2023-03-26T21:35:51.890Z,0.70
2023-03-26T21:38:23.892Z,0.68
2023-03-26T21:40:58.828Z,0.70
2023-03-26T21:43:26.150Z,0.70
2023-03-26T21:45:54.805Z,0.70
2023-03-26T21:48:22.186Z,0.70
2023-03-26T21:50:49.526Z,0.70
2023-03-26T21:53:16.773Z,0.70
2023-03-26T21:56:15.086Z,0.60
2023-03-26T21:59:05.099Z,0.70
2023-03-26T22:01:41.121Z,0.70
2023-03-26T22:04:18.335Z,0.70
2023-03-26T22:07:25.428Z,0.70
2023-03-26T22:09:52.367Z,0.70
2023-03-26T22:12:19.119Z,0.57
2023-03-26T22:14:45.768Z,0.60
2023-03-26T22:17:12.365Z,0.60
2023-03-26T22:19:38.904Z,0.70
2023-03-26T22:22:05.449Z,0.60
2023-03-26T22:24:32.146Z,0.60
2023-03-26T22:26:58.740Z,0.60
2023-03-26T22:29:25.352Z,0.60
2023-03-26T22:31:52.426Z,0.60
2023-03-26T22:34:19.804Z,0.63
2023-03-26T22:36:46.758Z,0.70
2023-03-26T22:39:13.713Z,0.60
2023-03-26T22:41:40.342Z,0.65
2023-03-26T22:44:18.935Z,0.60
2023-03-26T22:46:49.274Z,0.60
2023-03-26T22:49:16.600Z,0.60
2023-03-26T22:51:43.657Z,0.60
2023-03-26T22:54:10.432Z,0.60
2023-03-26T22:56:37.247Z,0.60
2023-03-26T22:59:04.021Z,0.60
2023-03-26T23:01:30.764Z,0.60
2023-03-26T23:03:57.930Z,0.60
2023-03-26T23:06:25.133Z,0.60
2023-03-26T23:08:51.918Z,0.60
2023-03-26T23:11:20.523Z,0.60
2023-03-26T23:13:47.890Z,0.57
2023-03-26T23:16:16.499Z,0.60
2023-03-26T23:18:43.832Z,0.60
2023-03-26T23:21:19.724Z,0.50
2023-03-26T23:23:47.570Z,0.60
2023-03-26T23:26:14.884Z,0.60
2023-03-26T23:28:42.126Z,0.60
2023-03-26T23:31:10.221Z,0.60
2023-03-26T23:33:39.022Z,0.60
2023-03-26T23:36:09.308Z,0.50
2023-03-26T23:38:43.613Z,0.50
2023-03-26T23:41:15.145Z,0.60
2023-03-26T23:43:54.451Z,0.50
2023-03-26T23:46:30.844Z,0.50
2023-03-26T23:48:59.983Z,0.50
2023-03-26T23:51:26.879Z,0.60
2023-03-26T23:53:53.857Z,0.60
2023-03-26T23:56:21.093Z,0.50
2023-03-26T23:58:49.063Z,0.50
